Flight Track Log - Related Links

Times and Time Zones

All times are in EDT time to prevent confusion due to time zone crossing. See the RBY803 flight status page for this flight to view local times or setup timezone preferences in your user account.

Time Position Orientation Groundspeed Altitude Reporting Facility
EDT Latitude Longitude Course Direction KTS MPH feet Rate Location/Type
Sun 03:59:57 AM 34.9856 -82.2617 253° West 360 414 24,000  Level Atlanta Center
Sun 04:00:57 AM 35.0803 -82.3231 332° Northwest 434 499 24,000  Level Atlanta Center
Sun 04:01:57 AM 35.1811 -82.3717 338° Northwest 389 448 24,000  Level Atlanta Center
Sun 04:02:57 AM 35.2819 -82.4256 336° Northwest 389 448 24,000  Level Atlanta Center
Sun 04:03:57 AM 35.3808 -82.4822 335° Northwest 389 448 24,000 -8,400 Level Atlanta Center
Sun 04:04:00 AM 34.7729 -82.8463 259° West  Level FlightAware Approximate
Sun 04:04:57 AM 35.0333 -82.1133 139° Southeast 366 421 7,200  Level Atlanta Center
Sun 04:05:00 AM 34.7449 -82.9707 253° West  Level FlightAware Approximate
Sun 04:05:57 AM 35.0739 -82.1761 308° West 225 259 9,900  Level Atlanta Center
Sun 04:06:57 AM 35.0817 -82.2697 276° West 190 219 10,700 1,800 Climbing Atlanta Center
Sun 04:07:57 AM 35.1000 -82.3936 280° West 291 335 13,500 2,500 Climbing Atlanta Center
Sun 04:08:57 AM 35.1142 -82.5153 278° West 325 374 15,700 2,650 Climbing Atlanta Center
Sun 04:09:57 AM 35.0928 -82.6453 259° West 355 409 18,800 2,850 Climbing Atlanta Center
Sun 04:10:57 AM 35.0861 -82.8000 267° West 396 456 21,400 2,300 Climbing Atlanta Center
Sun 04:11:57 AM 35.0811 -82.9500 268° West 410 472 23,400 1,300 Climbing Atlanta Center
Sun 04:12:57 AM 35.0761 -83.0922 268° West 431 496 24,000 300 Climbing Atlanta Center
Sun 04:13:57 AM 35.0711 -83.2419 268° West 437 503 24,000  Level Atlanta Center
Sun 04:14:57 AM 35.0761 -83.3892 272° West 444 511 24,000  Level Atlanta Center
Sun 04:15:57 AM 35.0767 -83.5389 270° West 444 511 24,000  Level Atlanta Center
Sun 04:16:57 AM 35.0772 -83.6861 270° West 439 505 24,000  Level Atlanta Center
Sun 04:17:57 AM 35.0756 -83.8383 269° West 439 505 24,000  Level Atlanta Center
Sun 04:18:57 AM 35.0756 -83.9856 270° West 439 505 24,000  Level Atlanta Center
Sun 04:19:57 AM 35.0819 -84.1328 273° West 439 505 24,000  Level Atlanta Center
Sun 04:20:57 AM 35.0964 -84.2800 277° West 439 505 24,000  Level Atlanta Center
Sun 04:21:57 AM 35.1167 -84.4272 280° West 444 511 24,000  Level Atlanta Center
Sun 04:22:57 AM 35.1331 -84.5569 279° West 444 511 24,000  Level Atlanta Center
Sun 04:23:57 AM 35.1572 -84.7044 281° West 444 511 24,000  Level Atlanta Center
Sun 04:24:57 AM 35.1772 -84.8519 279° West 444 511 24,000  Level Atlanta Center
Sun 04:25:57 AM 35.1972 -84.9969 280° West 444 511 24,000  Level Atlanta Center
Sun 04:26:57 AM 35.2147 -85.1419 278° West 444 511 24,000  Level Atlanta Center
Sun 04:27:57 AM 35.2342 -85.2847 280° West 444 511 24,000  Level Atlanta Center
Sun 04:28:57 AM 35.2536 -85.4325 279° West 444 511 24,000  Level Atlanta Center
Sun 04:29:57 AM 35.2725 -85.5803 279° West 444 511 24,000  Level Atlanta Center
Sun 04:30:57 AM 35.2917 -85.7233 279° West 444 511 24,000  Level Atlanta Center
Sun 04:31:57 AM 35.3100 -85.8864 278° West 444 511 24,000  Level Atlanta Center
Sun 04:32:57 AM 35.3308 -86.0294 280° West 444 511 24,000  Level Atlanta Center
Sun 04:33:57 AM 35.3492 -86.1778 279° West 444 511 24,000  Level Atlanta Center
Sun 04:34:57 AM 35.3675 -86.3233 279° West 444 511 24,000  Level Atlanta Center
Sun 04:35:57 AM 35.3833 -86.4689 278° West 444 511 24,000  Level Atlanta Center
Sun 04:36:57 AM 35.4036 -86.5994 281° West 444 511 24,000  Level Atlanta Center
Sun 04:37:57 AM 35.4214 -86.7503 278° West 444 511 24,000  Level Atlanta Center
Sun 04:38:57 AM 35.4347 -86.8986 276° West 444 511 24,000  Level Atlanta Center
Sun 04:39:57 AM 35.4542 -87.0447 279° West 444 511 24,000  Level Atlanta Center
Sun 04:41:00 AM 35.4637 -87.1878 275° West  Level FlightAware Approximate
Sun 04:48:00 AM 35.5718 -88.1364 278° West  Level FlightAware Approximate
Sun 04:49:00 AM 35.5867 -88.2721 278° West  Level FlightAware Approximate
Sun 04:50:00 AM 35.6014 -88.4078 278° West  Level FlightAware Approximate
Sun 04:51:00 AM 35.6160 -88.5436 278° West  Level FlightAware Approximate
Sun 04:52:00 AM 35.6278 -88.6798 276° West  Level FlightAware Approximate
Sun 04:53:00 AM 35.6394 -88.8160 276° West  Level FlightAware Approximate
Sun 04:54:00 AM 35.6509 -88.9523 276° West  Level FlightAware Approximate
Sun 04:55:00 AM 35.6622 -89.0887 276° West  Level FlightAware Approximate
Sun 04:56:00 AM 35.6733 -89.2251 276° West  Level FlightAware Approximate
Sun 04:57:00 AM 35.6845 -89.3614 277° West  Level FlightAware Approximate
Sun 04:58:00 AM 35.6986 -89.4974 277° West  Level FlightAware Approximate
Sun 04:59:00 AM 35.7126 -89.6335 277° West  Level FlightAware Approximate
Sun 05:00:00 AM 35.7263 -89.7696 277° West  Level FlightAware Approximate
Sun 05:01:00 AM 35.7400 -89.9057 277° West  Level FlightAware Approximate
Sun 05:02:00 AM 35.7534 -90.0419 277° West  Level FlightAware Approximate
Sun 05:03:00 AM 35.7668 -90.1782 277° West  Level FlightAware Approximate
Sun 05:04:00 AM 35.7799 -90.3144 277° West  Level FlightAware Approximate
Sun 05:05:00 AM 35.7952 -90.4504 278° West  Level FlightAware Approximate
Sun 05:06:00 AM 35.8112 -90.5863 278° West  Level FlightAware Approximate
Sun 05:07:00 AM 35.8242 -90.7226 276° West  Level FlightAware Approximate
Sun 05:07:43 AM 35.8686 -91.1458 276° West 435 501 24,000  Level Kansas City Center
Sun 05:08:00 AM 35.8357 -90.8593 276° West  Level FlightAware Approximate
Sun 05:08:43 AM 35.8806 -91.2886 276° West 435 501 24,000  Level Kansas City Center
Sun 05:09:00 AM 35.8470 -90.9959 276° West  Level FlightAware Approximate
Sun 05:09:43 AM 35.8914 -91.4358 275° West 435 501 24,000  Level Kansas City Center
Sun 05:10:00 AM 35.8581 -91.1326 276° West  Level FlightAware Approximate
Sun 05:10:44 AM 35.9028 -91.5839 275° West 436 502 24,000  Level Kansas City Center
Sun 05:11:00 AM 35.8691 -91.2693 276° West  Level FlightAware Approximate
Sun 05:11:44 AM 35.9136 -91.7325 275° West 438 504 24,000  Level Kansas City Center
Sun 05:12:00 AM 35.8799 -91.4061 276° West  Level FlightAware Approximate
Sun 05:12:44 AM 35.9256 -91.8825 276° West 440 506 24,000  Level Kansas City Center
Sun 05:13:44 AM 35.9367 -92.0325 275° West 441 507 24,000  Level Kansas City Center
Sun 05:14:44 AM 35.9489 -92.1825 276° West 442 509 24,000  Level Kansas City Center
Sun 05:15:45 AM 35.9597 -92.3306 275° West 439 505 24,000  Level Kansas City Center
Sun 05:16:45 AM 35.9708 -92.4803 275° West 440 506 24,000  Level Kansas City Center
Sun 05:17:45 AM 35.9808 -92.6281 275° West 438 504 24,000  Level Kansas City Center
Sun 05:18:45 AM 35.9911 -92.7767 275° West 438 504 24,000  Level Kansas City Center
Sun 05:19:45 AM 36.0011 -92.9250 275° West 438 504 24,000  Level Kansas City Center
Sun 05:20:46 AM 36.0111 -93.0744 275° West 441 507 24,000  Level Kansas City Center
Sun 05:21:46 AM 36.0228 -93.2536 275° West 441 507 24,000  Level Kansas City Center
Sun 05:22:46 AM 36.0328 -93.4028 275° West 440 506 24,000  Level Kansas City Center
Sun 05:23:46 AM 36.0425 -93.5519 275° West 440 506 24,000  Level Kansas City Center
Sun 05:24:46 AM 36.0525 -93.7028 275° West 442 509 24,000  Level Kansas City Center
Sun 05:25:46 AM 36.0619 -93.8547 274° West 445 512 24,000  Level Kansas City Center
Sun 05:26:47 AM 36.0706 -94.0056 274° West 444 511 24,000  Level Kansas City Center
Sun 05:27:47 AM 36.0792 -94.1431 274° West 445 512 24,000  Level Kansas City Center
Sun 05:28:47 AM 36.0875 -94.2953 274° West 444 511 24,000  Level Kansas City Center
Sun 05:29:47 AM 36.0958 -94.4472 274° West 442 509 24,000  Level Kansas City Center
Sun 05:30:47 AM 36.1039 -94.5978 274° West 439 505 24,000  Level Kansas City Center
Sun 05:31:47 AM 36.1119 -94.7483 274° West 438 504 24,000  Level Kansas City Center
Sun 05:32:47 AM 36.1194 -94.8997 274° West 438 504 24,000  Level Kansas City Center
Sun 05:33:48 AM 36.1267 -95.0511 273° West 439 505 24,000  Level Kansas City Center
Sun 05:34:48 AM 36.1342 -95.2078 273° West 434 499 24,000  Level Kansas City Center
Sun 05:35:48 AM 36.1422 -95.3578 274° West 437 503 24,000  Level Kansas City Center
Sun 05:36:48 AM 36.1492 -95.5092 273° West 441 507 24,000  Level Kansas City Center
Sun 05:37:48 AM 36.1564 -95.6594 273° West 440 506 24,000  Level Kansas City Center
Sun 05:38:48 AM 36.1631 -95.8133 273° West 441 507 24,000  Level Kansas City Center
Sun 05:39:48 AM 36.1697 -95.9642 273° West 438 504 24,000  Level Kansas City Center
Sun 05:40:48 AM 36.1761 -96.1153 273° West 437 503 24,000  Level Kansas City Center
Sun 05:41:49 AM 36.1825 -96.2661 273° West 437 503 24,000  Level Kansas City Center
Sun 05:42:49 AM 36.1883 -96.4158 273° West 436 502 24,000  Level Kansas City Center
Sun 05:43:49 AM 36.1939 -96.5672 273° West 439 505 24,000  Level Kansas City Center
Sun 05:44:49 AM 36.1992 -96.7183 273° West 438 504 24,000  Level Kansas City Center
Sun 05:45:49 AM 36.2047 -96.8581 273° West 437 503 24,000  Level Kansas City Center
Sun 05:46:49 AM 36.2106 -97.0094 273° West 440 506 24,000  Level Kansas City Center
Sun 05:47:49 AM 36.2156 -97.1608 272° West 443 510 24,000  Level Kansas City Center
Sun 05:48:49 AM 36.2200 -97.3117 272° West 442 509 24,000  Level Kansas City Center
Sun 05:49:49 AM 36.2247 -97.4636 272° West 443 510 24,000  Level Kansas City Center
Sun 05:50:50 AM 36.2292 -97.6142 272° West 442 509 24,000  Level Kansas City Center
Sun 05:51:50 AM 36.2325 -97.7658 272° West 443 510 24,000  Level Kansas City Center
Sun 05:52:50 AM 36.2375 -97.9161 272° West 440 506 24,000  Level Kansas City Center
Sun 05:53:50 AM 36.2411 -98.0653 272° West 438 504 24,000  Level Kansas City Center
Sun 05:54:50 AM 36.2436 -98.2122 271° West 436 502 24,000  Level Kansas City Center
Sun 05:55:50 AM 36.2475 -98.3625 272° West 435 501 24,000  Level Kansas City Center
Sun 05:56:50 AM 36.2497 -98.5119 271° West 435 501 24,000  Level Kansas City Center
Sun 05:57:50 AM 36.2528 -98.6603 272° West 434 499 24,000  Level Kansas City Center
Sun 05:58:50 AM 36.2558 -98.8081 272° West 431 496 24,000  Level Kansas City Center
Sun 05:59:50 AM 36.2592 -98.9833 271° West 430 495 24,000  Level Kansas City Center
Sun 06:00:51 AM 36.2614 -99.1306 271° West 431 496 24,000  Level Kansas City Center
Sun 06:01:51 AM 36.2636 -99.2764 271° West 430 495 24,000  Level Kansas City Center
Sun 06:02:51 AM 36.2664 -99.4236 271° West 431 496 24,000  Level Kansas City Center
Sun 06:03:51 AM 36.2675 -99.5703 271° West 429 494 24,000  Level Kansas City Center
Sun 06:04:51 AM 36.2700 -99.7183 271° West 431 496 24,000  Level Kansas City Center
Sun 06:05:51 AM 36.2711 -99.8656 271° West 429 494 24,000  Level Kansas City Center
Sun 06:06:51 AM 36.2731 -100.0128 271° West 428 493 24,000  Level Kansas City Center
Sun 06:07:51 AM 36.2742 -100.1581 271° West 425 489 24,000  Level Kansas City Center
Sun 06:08:51 AM 36.2742 -100.3042 270° West 425 489 24,000  Level Kansas City Center
Sun 06:09:51 AM 36.2756 -100.4492 271° West 421 484 24,000  Level Kansas City Center
Sun 06:10:51 AM 36.2753 -100.5997 270° West 431 496 24,000  Level Kansas City Center
Sun 06:11:52 AM 36.2772 -100.7569 271° West 442 509 24,000  Level Kansas City Center
Sun 06:12:52 AM 36.2772 -100.9111 270° West 447 514 24,000  Level Kansas City Center
Sun 06:13:23 AM 36.2767 -100.9692 269° West 444 511 24,000  Level Albuquerque Center
Sun 06:14:23 AM 36.2778 -101.1203 271° West 444 511 24,000  Level Albuquerque Center
Sun 06:15:23 AM 36.2761 -101.2742 269° West 445 512 24,000  Level Albuquerque Center
Sun 06:16:23 AM 36.2775 -101.4308 271° West 452 520 24,000  Level Albuquerque Center
Sun 06:17:23 AM 36.2764 -101.5858 270° West 453 521 24,000  Level Albuquerque Center
Sun 06:18:24 AM 36.2758 -101.7378 270° West 449 517 24,000  Level Albuquerque Center
Sun 06:19:24 AM 36.2747 -101.8897 270° West 446 513 24,000  Level Albuquerque Center
Sun 06:20:24 AM 36.2731 -102.0425 269° West 446 513 24,000  Level Albuquerque Center
Sun 06:21:24 AM 36.2722 -102.1953 270° West 446 513 24,000  Level Albuquerque Center
Sun 06:22:24 AM 36.2703 -102.3478 269° West 446 513 24,000  Level Albuquerque Center
Sun 06:23:24 AM 36.2675 -102.5036 269° West 452 520 24,000  Level Albuquerque Center
Sun 06:24:24 AM 36.2658 -102.6900 269° West 453 521 24,000  Level Albuquerque Center
Sun 06:25:24 AM 36.2633 -102.8447 269° West 452 520 24,000  Level Albuquerque Center
Sun 06:26:24 AM 36.2625 -102.9900 270° West 452 520 24,000  Level Albuquerque Center
Sun 06:27:24 AM 36.2586 -103.1464 268° West 453 521 24,000  Level Albuquerque Center
Sun 06:28:24 AM 36.2569 -103.3050 269° West 455 524 24,000  Level Albuquerque Center
Sun 06:29:24 AM 36.2533 -103.4614 268° West 454 522 24,000  Level Albuquerque Center
Sun 06:30:24 AM 36.2503 -103.6183 269° West 454 522 24,000  Level Albuquerque Center
Sun 06:31:24 AM 36.2467 -103.7739 268° West 451 519 24,000  Level Albuquerque Center
Sun 06:32:24 AM 36.2436 -103.9322 269° West 455 524 24,000  Level Albuquerque Center
Sun 06:33:24 AM 36.2392 -104.0894 268° West 455 524 24,000  Level Albuquerque Center
Sun 06:34:25 AM 36.2344 -104.2419 268° West 447 514 24,000  Level Albuquerque Center
Sun 06:35:25 AM 36.2300 -104.3869 268° West 426 490 24,000  Level Albuquerque Center
Sun 06:36:25 AM 36.2264 -104.5311 268° West 420 483 24,000  Level Albuquerque Center
Sun 06:37:25 AM 36.2236 -104.6522 268° West 419 482 24,000  Level Albuquerque Center
Sun 06:38:25 AM 36.2181 -104.7978 267° West 421 484 24,000  Level Albuquerque Center
Sun 06:39:25 AM 36.2136 -104.9444 268° West 423 487 24,000  Level Albuquerque Center
Sun 06:40:25 AM 36.2083 -105.0919 268° West 426 490 24,000  Level Albuquerque Center
Sun 06:41:25 AM 36.2036 -105.2403 268° West 428 493 24,000  Level Albuquerque Center
Sun 06:42:25 AM 36.1978 -105.3892 267° West 430 495 24,000  Level Albuquerque Center
Sun 06:43:25 AM 36.1922 -105.5269 267° West 427 491 24,000  Level Albuquerque Center
Sun 06:44:25 AM 36.1875 -105.6767 268° West 428 493 24,000  Level Albuquerque Center
Sun 06:45:25 AM 36.1819 -105.8236 267° West 429 494 24,000  Level Albuquerque Center
Sun 06:46:25 AM 36.1761 -105.9686 267° West 428 493 24,000  Level Albuquerque Center
Sun 06:47:25 AM 36.1706 -106.1117 267° West 424 488 24,000  Level Albuquerque Center
Sun 06:48:26 AM 36.1642 -106.2567 267° West 423 487 24,000  Level Albuquerque Center
Sun 06:49:26 AM 36.1581 -106.4008 267° West 423 487 24,000  Level Albuquerque Center
Sun 06:50:26 AM 36.1508 -106.5642 267° West 419 482 24,000  Level Albuquerque Center
Sun 06:51:26 AM 36.1433 -106.7044 266° West 425 489 24,000  Level Albuquerque Center
Sun 06:52:26 AM 36.1369 -106.8436 267° West 425 489 24,000  Level Albuquerque Center
Sun 06:53:26 AM 36.1289 -107.0081 267° West 428 493 24,000  Level Albuquerque Center
Sun 06:54:26 AM 36.1236 -107.1494 267° West 429 494 24,000  Level Albuquerque Center
Sun 06:55:26 AM 36.1153 -107.2908 266° West 430 495 24,000  Level Albuquerque Center
Sun 06:56:26 AM 36.1081 -107.4322 266° West 430 495 24,000  Level Albuquerque Center
Sun 06:57:26 AM 36.0994 -107.5961 266° West 428 493 24,000  Level Albuquerque Center
Sun 06:58:26 AM 36.0906 -107.7344 265° West 425 489 24,000  Level Albuquerque Center
Sun 06:59:26 AM 36.0833 -107.8731 266° West 423 487 24,000  Level Albuquerque Center
Sun 07:00:27 AM 36.0756 -108.0119 266° West 423 487 24,000  Level Albuquerque Center
Sun 07:01:27 AM 36.0661 -108.1742 266° West 424 488 24,000  Level Albuquerque Center
Sun 07:02:27 AM 36.0569 -108.3114 265° West 420 483 24,000  Level Albuquerque Center
Sun 07:03:27 AM 36.0492 -108.4514 266° West 424 488 24,000  Level Albuquerque Center
Sun 07:04:27 AM 36.0394 -108.6081 266° West 424 488 24,000  Level Albuquerque Center
Sun 07:05:27 AM 36.0294 -108.7531 265° West 425 489 24,000  Level Albuquerque Center
Sun 07:06:27 AM 36.0203 -108.8983 266° West 426 490 24,000  Level Albuquerque Center
Sun 07:07:27 AM 36.0089 -109.0442 265° West 428 493 24,000  Level Albuquerque Center
Sun 07:08:27 AM 36.0017 -109.1797 266° West 426 490 24,000  Level Albuquerque Center
Sun 07:09:27 AM 35.9925 -109.3172 265° West 420 483 24,000  Level Albuquerque Center
Sun 07:10:06 AM 35.9844 -109.4092 264° West 420 483 24,000  Level Denver Center
Sun 07:11:06 AM 35.9742 -109.5697 266° West 420 483 24,000  Level Denver Center
Sun 07:12:06 AM 35.9642 -109.7086 265° West 422 486 24,000  Level Denver Center
Sun 07:13:06 AM 35.9544 -109.8475 265° West 424 488 24,000  Level Denver Center
Sun 07:14:06 AM 35.9433 -109.9853 264° West 422 486 24,000  Level Denver Center
Sun 07:15:06 AM 35.9319 -110.1289 264° West 423 487 24,000  Level Denver Center
Sun 07:16:06 AM 35.9211 -110.2731 265° West 422 486 24,000  Level Denver Center
Sun 07:17:06 AM 35.9114 -110.4172 265° West 423 487 24,000  Level Denver Center
Sun 07:18:06 AM 35.8989 -110.5642 264° West 428 493 24,000  Level Denver Center
Sun 07:19:06 AM 35.8872 -110.7092 264° West 427 491 24,000  Level Denver Center
Sun 07:20:06 AM 35.8750 -110.8544 264° West 427 491 24,000  Level Denver Center
Sun 07:21:06 AM 35.8639 -110.9978 265° West 423 487 24,000  Level Denver Center
Sun 07:22:07 AM 35.8522 -111.1406 264° West 420 483 24,000  Level Denver Center
Sun 07:23:07 AM 35.8392 -111.2822 264° West 417 480 24,000  Level Denver Center
Sun 07:24:07 AM 35.8275 -111.4264 264° West 421 484 24,000  Level Denver Center
Sun 07:25:07 AM 35.8142 -111.5697 263° West 422 486 24,000  Level Denver Center
Sun 07:26:07 AM 35.8008 -111.7136 264° West 422 486 24,000  Level Denver Center
Sun 07:27:07 AM 35.8061 -111.8592 273° West 424 488 24,000  Level Denver Center
Sun 07:28:07 AM 35.8206 -112.0028 277° West 423 487 24,000  Level Denver Center
Sun 07:29:07 AM 35.8347 -112.1458 277° West 421 484 24,000  Level Denver Center
Sun 07:30:07 AM 35.8503 -112.2886 278° West 421 484 24,000  Level Denver Center
Sun 07:31:07 AM 35.8644 -112.4325 277° West 421 484 24,000  Level Denver Center
Sun 07:32:21 AM 35.8819 -112.6072 277° West 423 487 24,000  Level Los Angeles Center
Sun 07:33:21 AM 35.8956 -112.7494 277° West 424 488 24,000 -150 Level Los Angeles Center
Sun 07:34:21 AM 35.9094 -112.8919 277° West 424 488 23,700 -450 Descending Los Angeles Center
Sun 07:35:21 AM 35.9233 -113.0347 277° West 424 488 23,100 -550 Descending Los Angeles Center
Sun 07:36:21 AM 35.9372 -113.1756 277° West 421 484 22,600 -496 Descending Los Angeles Center
Sun 07:37:22 AM 35.9503 -113.3181 276° West 421 484 22,100 -545 Descending Los Angeles Center
Sun 07:38:22 AM 35.9628 -113.4589 276° West 421 484 21,500 -600 Descending Los Angeles Center
Sun 07:39:22 AM 35.9767 -113.6233 276° West 406 467 20,900 -1,850 Descending Los Angeles Center
Sun 07:40:22 AM 35.9903 -113.7631 277° West 406 467 17,800 -3,100 Descending Los Angeles Center
Sun 07:41:22 AM 36.0017 -113.8994 276° West 403 464 14,700 -3,050 Descending Los Angeles Center
Sun 07:42:22 AM 36.0136 -114.0297 277° West 385 443 11,700 -2,272 Descending Los Angeles Center
Sun 07:43:05 AM 36.0197 -114.1058 276° West 375 432 10,800 -887 Descending Los Angeles Center
Sun 07:44:17 AM 36.0342 -114.2556 277° West 358 412 10,000 -406 Descending Los Angeles Center
Sun 07:45:18 AM 36.0467 -114.3792 277° West 331 381 9,900 -639 Descending Los Angeles Center
Sun 07:46:19 AM 36.0578 -114.4767 278° West 291 335 8,700 -942 Descending Los Angeles Center
Sun 07:47:19 AM 36.0686 -114.5742 278° West 284 327 8,000 -347 Descending Los Angeles Center
Sun 07:48:20 AM 36.0744 -114.6683 274° West 279 321 8,000 -50 Level Los Angeles Center
Sun 07:49:20 AM 36.0719 -114.7650 268° West 256 295 7,900 -942 Descending Los Angeles Center
Sun 07:50:21 AM 36.0728 -114.8472 271° West 258 297 6,100 -1,377 Descending Los Angeles Center
Sun 07:51:22 AM 36.0736 -114.9294 271° West 225 259 5,100 -1,041 Descending Los Angeles Center
Sun 07:52:22 AM 36.0747 -115.0036 271° West 201 231 4,000 -1,041 Descending Los Angeles Center
Sun 07:53:23 AM 36.0736 -115.0678 269° West 185 213 3,000 -843 Descending Los Angeles Center
Sun 07:54:23 AM 36.0733 -115.1158 270° West 140 161 2,300 -700 Descending Los Angeles Center
Sun 07:56:00 AM 36.0667 -115.1500 270° West  Level FlightAware Approximate

Login

Don't have an account? Register now (free) for customized features, flight alerts, and more!